Time;durP1;ratioP1;P1;durP2;ratioP2;P2;SDS_P1;SDS_P2;PMS_P1;PMS_P2;Temp;Humidity;BMP_temperature;BMP_pressure;BME280_temperature;BME280_humidity;BME280_pressure;Samples;Min_cycle;Max_cycle;Signal;HPM_P1;HPM_P2
2021/12/07 00:00:50;;;;;;;23.95;10.10;;;;;;;-1.78;98.12;98112.00;4501939;31;20461;-71
2021/12/07 00:03:18;;;;;;;18.73;8.65;;;;;;;-1.84;98.29;98114.88;4501935;31;20080;-71
2021/12/07 00:05:45;;;;;;;18.98;8.55;;;;;;;-1.86;98.59;98124.38;4500404;31;20088;-71
2021/12/07 00:08:12;;;;;;;24.87;9.43;;;;;;;-1.85;98.71;98115.78;4501656;31;20095;-71
2021/12/07 00:10:41;;;;;;;19.10;8.18;;;;;;;-1.90;98.95;98115.19;4502018;31;20123;-72
2021/12/07 00:13:10;;;;;;;20.95;7.93;;;;;;;-1.92;99.24;98114.41;4501656;31;20080;-71
2021/12/07 00:15:38;;;;;;;15.13;6.57;;;;;;;-1.86;98.96;98117.53;4501701;31;20540;-71
2021/12/07 00:18:06;;;;;;;20.85;8.35;;;;;;;-1.91;99.20;98106.62;4501604;31;20088;-71
2021/12/07 00:20:33;;;;;;;18.70;6.40;;;;;;;-2.00;99.63;98105.38;4501598;31;20088;-71
2021/12/07 00:23:04;;;;;;;14.93;6.90;;;;;;;-2.02;99.97;98104.59;4489913;31;20516;-71
2021/12/07 00:25:33;;;;;;;25.67;8.50;;;;;;;-2.04;100.00;98109.00;4485950;31;20450;-71
2021/12/07 00:28:00;;;;;;;20.95;9.27;;;;;;;-2.09;100.00;98118.66;4488108;31;20095;-71
2021/12/07 00:30:31;;;;;;;24.48;11.38;;;;;;;-2.15;100.00;98122.34;4501417;31;20100;-71
2021/12/07 00:33:15;;;;;;;26.50;9.82;;;;;;;-2.08;100.00;98122.03;4501387;31;20092;-71
2021/12/07 00:35:43;;;;;;;17.73;8.32;;;;;;;-2.16;100.00;98132.69;4501493;31;20459;-71
2021/12/07 00:38:18;;;;;;;23.05;8.23;;;;;;;-2.15;100.00;98129.19;4501426;31;20132;-71
2021/12/07 00:40:46;;;;;;;27.00;10.02;;;;;;;-2.18;100.00;98125.06;4501874;31;20115;-71
2021/12/07 00:43:13;;;;;;;22.15;9.35;;;;;;;-2.24;100.00;98127.06;4501387;31;20134;-71
2021/12/07 00:45:45;;;;;;;20.83;8.85;;;;;;;-2.25;100.00;98122.88;4501449;31;20521;-71
2021/12/07 00:48:15;;;;;;;21.35;9.25;;;;;;;-2.26;100.00;98118.63;4501327;31;20106;-71
2021/12/07 00:50:46;;;;;;;18.02;9.07;;;;;;;-2.28;100.00;98128.13;4501354;31;20144;-71
2021/12/07 00:53:13;;;;;;;14.40;7.40;;;;;;;-2.27;100.00;98120.38;4501355;31;20088;-71
2021/12/07 00:55:45;;;;;;;29.87;10.65;;;;;;;-2.25;100.00;98121.13;4501275;31;20167;-71
2021/12/07 00:58:21;;;;;;;26.17;9.38;;;;;;;-2.25;100.00;98115.97;4501697;31;20115;-71
2021/12/07 01:01:14;;;;;;;17.10;7.90;;;;;;;-2.33;100.00;98124.03;4501744;31;20165;-71
2021/12/07 01:03:42;;;;;;;28.70;9.73;;;;;;;-2.33;100.00;98118.09;4493918;31;20088;-71
2021/12/07 01:06:31;;;;;;;18.15;8.55;;;;;;;-2.35;100.00;98105.34;4501613;31;20465;-71
2021/12/07 01:25:26;;;;;;;20.42;7.93;;;;;;;-2.32;100.00;98083.81;4484312;32;20072;-71
2021/12/07 01:27:57;;;;;;;25.25;10.48;;;;;;;-2.25;100.00;98084.38;4486893;31;20085;-71
2021/12/07 01:30:50;;;;;;;19.70;8.73;;;;;;;-2.30;100.00;98086.31;4501387;31;20103;-71
2021/12/07 02:00:16;;;;;;;19.73;9.20;;;;;;;-2.27;100.00;98075.91;4501131;31;20088;-71
2021/12/07 02:02:45;;;;;;;21.02;7.90;;;;;;;-2.36;100.00;98083.16;4501323;31;20350;-71
2021/12/07 02:05:13;;;;;;;27.90;10.75;;;;;;;-2.35;100.00;98101.94;4501146;31;20185;-71
2021/12/07 02:07:40;;;;;;;28.35;10.35;;;;;;;-2.37;100.00;98081.47;4500872;31;20092;-71
2021/12/07 02:10:16;;;;;;;15.10;6.97;;;;;;;-2.31;100.00;98085.50;4501090;31;20483;-71
2021/12/07 02:12:46;;;;;;;26.95;10.32;;;;;;;-2.30;100.00;98094.00;4501011;31;20423;-71
2021/12/07 02:15:22;;;;;;;17.67;9.07;;;;;;;-2.28;100.00;98090.47;4499896;31;20127;-71
2021/12/07 02:17:50;;;;;;;24.52;10.27;;;;;;;-2.34;100.00;98094.16;4500941;31;20092;-71
2021/12/07 02:20:20;;;;;;;22.48;10.85;;;;;;;-2.27;100.00;98092.16;4500790;31;20092;-71
2021/12/07 02:22:47;;;;;;;22.33;9.82;;;;;;;-2.38;100.00;98094.38;4491121;31;20096;-71
2021/12/07 02:25:16;;;;;;;23.50;9.65;;;;;;;-2.34;100.00;98081.34;4484923;32;20102;-71
2021/12/07 02:27:46;;;;;;;26.45;10.07;;;;;;;-2.37;100.00;98075.53;4485606;31;20175;-71
2021/12/07 02:30:16;;;;;;;23.70;10.07;;;;;;;-2.28;100.00;98079.41;4500569;31;20147;-71
2021/12/07 02:32:46;;;;;;;29.95;11.38;;;;;;;-2.30;100.00;98070.91;4498366;31;73081;-71
2021/12/07 02:35:21;;;;;;;26.25;11.68;;;;;;;-2.43;100.00;98076.66;4500880;31;20100;-71
2021/12/07 02:37:50;;;;;;;21.48;9.52;;;;;;;-2.39;100.00;98074.75;4501110;31;20099;-71
2021/12/07 02:40:18;;;;;;;19.90;8.48;;;;;;;-2.35;100.00;98078.84;4500651;31;20165;-71
2021/12/07 02:42:46;;;;;;;30.37;11.00;;;;;;;-2.35;100.00;98068.59;4500719;31;20530;-71
2021/12/07 02:45:13;;;;;;;19.30;7.93;;;;;;;-2.34;100.00;98068.50;4500541;31;20149;-71
2021/12/07 02:47:41;;;;;;;25.08;11.60;;;;;;;-2.29;100.00;98068.28;4500941;31;20419;-71
2021/12/07 02:50:09;;;;;;;14.90;6.60;;;;;;;-2.25;100.00;98064.69;4500357;31;20397;-71
2021/12/07 02:52:36;;;;;;;16.62;7.80;;;;;;;-2.28;100.00;98059.69;4500838;31;20142;-71
2021/12/07 02:55:06;;;;;;;18.98;8.43;;;;;;;-2.35;100.00;98054.03;4500659;31;20119;-71
2021/12/07 02:57:34;;;;;;;23.48;9.38;;;;;;;-2.32;100.00;98055.59;4500677;31;20133;-71
2021/12/07 03:00:16;;;;;;;18.12;8.68;;;;;;;-2.32;100.00;98046.19;4500440;31;20164;-71
2021/12/07 03:02:52;;;;;;;20.50;10.15;;;;;;;-2.31;100.00;98044.44;4500831;31;20076;-71
2021/12/07 03:27:11;;;;;;;18.73;7.07;;;;;;;-2.35;100.00;98048.06;4467400;32;20086;-71
2021/12/07 03:29:40;;;;;;;23.27;9.40;;;;;;;-2.28;100.00;98054.56;4455263;32;20634;-71
2021/12/07 03:32:07;;;;;;;23.27;9.25;;;;;;;-2.33;100.00;98041.97;4452673;32;20168;-71
2021/12/07 03:34:34;;;;;;;20.62;8.05;;;;;;;-2.36;100.00;98047.25;4453028;32;20473;-71
2021/12/07 03:37:02;;;;;;;17.37;7.32;;;;;;;-2.28;100.00;98052.00;4452525;32;20652;-71
2021/12/07 03:39:30;;;;;;;18.67;8.38;;;;;;;-2.26;100.00;98057.06;4452530;32;20088;-71
2021/12/07 03:41:57;;;;;;;18.92;8.23;;;;;;;-2.21;100.00;98045.66;4452785;32;20121;-71
2021/12/07 03:44:25;;;;;;;18.73;8.65;;;;;;;-2.24;100.00;98048.38;4452561;32;20466;-71
2021/12/07 03:46:52;;;;;;;22.33;9.95;;;;;;;-2.25;100.00;98043.34;4452786;32;20105;-72
2021/12/07 03:49:19;;;;;;;30.20;12.45;;;;;;;-2.29;100.00;98042.63;4452287;32;20105;-71
2021/12/07 03:51:46;;;;;;;13.40;7.60;;;;;;;-2.25;100.00;98046.72;4486236;31;20119;-71
2021/12/07 03:54:13;;;;;;;22.27;8.73;;;;;;;-2.15;100.00;98065.03;4486169;32;20455;-71
2021/12/07 03:56:41;;;;;;;26.45;10.93;;;;;;;-2.22;100.00;98056.00;4486080;31;20088;-71
2021/12/07 03:59:08;;;;;;;26.37;10.68;;;;;;;-2.21;100.00;98052.50;4486305;31;20076;-71
2021/12/07 04:01:35;;;;;;;18.83;7.80;;;;;;;-2.21;100.00;98053.38;4485837;31;20160;-71
2021/12/07 04:04:03;;;;;;;22.77;9.90;;;;;;;-2.21;100.00;98060.22;4485970;32;20107;-71
2021/12/07 04:06:31;;;;;;;27.85;11.90;;;;;;;-2.23;100.00;98056.91;4486028;31;20154;-71
2021/12/07 04:08:59;;;;;;;17.55;7.37;;;;;;;-2.18;100.00;98062.63;4486049;31;20114;-71
2021/12/07 04:11:26;;;;;;;19.52;9.20;;;;;;;-2.16;100.00;98064.22;4485794;31;20114;-71
2021/12/07 04:13:53;;;;;;;20.08;9.20;;;;;;;-2.18;100.00;98050.66;4486203;32;20153;-71
2021/12/07 04:16:22;;;;;;;24.30;10.32;;;;;;;-2.19;100.00;98056.69;4486146;32;20123;-71
2021/12/07 04:18:50;;;;;;;23.80;9.25;;;;;;;-2.09;100.00;98058.78;4485909;31;20114;-71
2021/12/07 04:21:17;;;;;;;28.80;9.90;;;;;;;-2.21;100.00;98058.50;4485709;31;20130;-72
2021/12/07 04:23:45;;;;;;;25.15;12.43;;;;;;;-2.20;100.00;98061.88;4501433;31;20515;-72
2021/12/07 04:26:13;;;;;;;20.33;8.18;;;;;;;-2.27;100.00;98063.94;4501593;31;20171;-72
2021/12/07 04:28:41;;;;;;;26.17;9.60;;;;;;;-2.18;100.00;98060.91;4494852;31;20552;-71
2021/12/07 04:31:11;;;;;;;25.15;9.55;;;;;;;-2.14;100.00;98066.72;4485667;31;20139;-71
2021/12/07 04:33:38;;;;;;;17.98;9.88;;;;;;;-2.11;100.00;98076.81;4485683;32;20156;-71
2021/12/07 04:36:07;;;;;;;22.23;10.50;;;;;;;-2.10;100.00;98070.78;4485642;31;20466;-71
2021/12/07 04:38:35;;;;;;;19.20;8.77;;;;;;;-2.16;100.00;98079.63;4485183;31;20160;-71
2021/12/07 04:41:03;;;;;;;29.45;10.38;;;;;;;-2.16;100.00;98071.91;4485774;31;20112;-72
2021/12/07 04:43:30;;;;;;;22.37;8.93;;;;;;;-2.19;100.00;98074.63;4485637;31;20084;-71
2021/12/07 04:46:21;;;;;;;21.95;8.60;;;;;;;-2.16;100.00;98068.53;4485866;31;20097;-71
2021/12/07 04:59:40;;;;;;;14.73;6.35;;;;;;;-2.13;99.77;98094.03;4485556;32;20084;-71
2021/12/07 05:02:07;;;;;;;19.58;10.55;;;;;;;-2.10;99.63;98087.94;4485407;31;20159;-72
2021/12/07 05:04:36;;;;;;;16.58;8.13;;;;;;;-2.16;99.92;98089.06;4485674;31;20096;-72
2021/12/07 05:07:11;;;;;;;21.87;8.75;;;;;;;-2.11;99.87;98088.84;4485512;31;20081;-72
2021/12/07 05:10:08;;;;;;;18.23;8.45;;;;;;;-2.13;99.78;98106.88;4485765;31;20107;-72
2021/12/07 05:12:40;;;;;;;20.70;7.62;;;;;;;-2.05;99.36;98098.81;4485094;31;20092;-72
2021/12/07 05:15:26;;;;;;;17.75;8.57;;;;;;;-2.09;99.33;98100.69;4485285;31;20081;-72
2021/12/07 05:18:09;;;;;;;23.85;10.27;;;;;;;-2.11;99.49;98094.78;4485401;32;20177;-72
2021/12/07 05:39:44;;;;;;;16.62;8.45;;;;;;;-2.14;98.96;98111.16;4486711;31;20529;-71
2021/12/07 05:42:12;;;;;;;17.33;8.25;;;;;;;-2.21;99.53;98102.13;4499674;31;20152;-72
2021/12/07 05:44:39;;;;;;;29.33;9.38;;;;;;;-2.21;99.21;98091.84;4499651;31;20471;-72
2021/12/07 05:47:08;;;;;;;31.42;10.63;;;;;;;-2.25;99.53;98087.75;4499564;31;20125;-72
2021/12/07 05:49:39;;;;;;;19.10;7.37;;;;;;;-2.23;99.58;98095.37;4491196;31;20096;-72
2021/12/07 05:52:06;;;;;;;19.90;9.52;;;;;;;-2.23;99.58;98092.81;4484604;32;20600;-72
2021/12/07 05:54:33;;;;;;;23.20;11.25;;;;;;;-2.26;99.69;98095.53;4486254;31;20115;-72
2021/12/07 05:57:00;;;;;;;21.85;9.40;;;;;;;-2.28;99.61;98081.97;4485614;31;20108;-72
2021/12/07 05:59:27;;;;;;;25.67;11.05;;;;;;;-2.39;100.00;98083.31;4487272;31;20112;-72
2021/12/07 06:01:55;;;;;;;23.55;11.00;;;;;;;-2.39;100.00;98085.00;4485610;31;20155;-72
2021/12/07 06:04:23;;;;;;;16.48;7.80;;;;;;;-2.41;100.00;98079.13;4484842;31;20530;-72
2021/12/07 06:06:50;;;;;;;16.42;6.60;;;;;;;-2.38;100.00;98076.44;4491891;31;20100;-71
2021/12/07 06:09:17;;;;;;;23.35;10.13;;;;;;;-2.46;100.00;98097.31;4498594;31;20087;-72
2021/12/07 06:11:47;;;;;;;13.98;6.87;;;;;;;-2.43;100.00;98073.25;4486984;31;20096;-71
2021/12/07 06:14:18;;;;;;;21.27;8.10;;;;;;;-2.38;100.00;98073.84;4499670;31;20084;-74
2021/12/07 06:16:47;;;;;;;20.35;9.20;;;;;;;-2.43;100.00;98061.25;4495268;31;20119;-74
2021/12/07 06:19:14;;;;;;;19.62;9.60;;;;;;;-2.43;100.00;98094.59;4495424;31;20122;-74
2021/12/07 06:21:41;;;;;;;24.65;9.55;;;;;;;-2.47;100.00;98080.25;4493490;31;20540;-74
2021/12/07 06:24:09;;;;;;;15.65;7.72;;;;;;;-2.48;100.00;98076.03;4484438;31;20106;-74
2021/12/07 06:26:36;;;;;;;24.48;9.60;;;;;;;-2.52;100.00;98077.91;4494665;31;20104;-74
2021/12/07 06:29:03;;;;;;;17.50;8.02;;;;;;;-2.44;100.00;98082.66;4487800;31;20150;-74
2021/12/07 06:31:31;;;;;;;19.52;8.45;;;;;;;-2.40;99.99;98079.06;4490756;31;20092;-74
2021/12/07 06:33:58;;;;;;;22.77;10.10;;;;;;;-2.42;100.00;98075.75;4499817;31;20473;-74
2021/12/07 06:36:25;;;;;;;21.70;8.82;;;;;;;-2.47;100.00;98075.13;4495823;31;20116;-74
2021/12/07 06:38:53;;;;;;;15.95;7.80;;;;;;;-2.47;100.00;98076.88;4493987;31;20157;-71
2021/12/07 06:41:20;;;;;;;17.33;7.53;;;;;;;-2.43;99.76;98079.22;4489978;31;20517;-70
2021/12/07 06:43:47;;;;;;;17.73;8.00;;;;;;;-2.39;99.43;98077.31;4499304;31;20100;-70
2021/12/07 06:46:15;;;;;;;22.40;8.93;;;;;;;-2.40;99.60;98079.06;4500344;31;20131;-71
2021/12/07 06:48:42;;;;;;;25.08;10.40;;;;;;;-2.37;99.31;98071.22;4489588;31;20093;-71
2021/12/07 06:51:09;;;;;;;23.30;10.60;;;;;;;-2.34;99.18;98083.91;4484194;31;20122;-71
2021/12/07 06:53:37;;;;;;;20.35;8.70;;;;;;;-2.30;98.83;98082.03;4487069;31;20100;-71
2021/12/07 06:56:05;;;;;;;23.20;11.18;;;;;;;-2.43;99.32;98075.81;4486188;31;20092;-73
2021/12/07 06:58:33;;;;;;;20.25;8.50;;;;;;;-2.47;99.49;98076.88;4482890;31;20132;-72
2021/12/07 07:01:03;;;;;;;23.00;9.15;;;;;;;-2.42;99.07;98088.56;4498990;31;20449;-73
2021/12/07 07:03:30;;;;;;;15.88;6.90;;;;;;;-2.45;99.29;98093.84;4491476;31;20108;-73
2021/12/07 07:05:58;;;;;;;28.67;7.30;;;;;;;-2.45;99.38;98093.84;4491987;31;20115;-74
2021/12/07 07:08:25;;;;;;;21.05;8.10;;;;;;;-2.40;99.22;98099.59;4493497;31;20107;-72
2021/12/07 07:10:52;;;;;;;24.87;10.32;;;;;;;-2.44;99.15;98100.63;4497788;31;20175;-74
2021/12/07 07:13:20;;;;;;;21.87;8.98;;;;;;;-2.38;99.14;98102.06;4484502;31;20108;-75
2021/12/07 07:15:47;;;;;;;19.50;8.98;;;;;;;-2.30;98.58;98105.13;4485254;31;20123;-75
2021/12/07 07:18:15;;;;;;;27.83;11.45;;;;;;;-2.25;98.20;98100.59;4497868;31;20096;-75
2021/12/07 07:20:42;;;;;;;21.33;8.63;;;;;;;-2.21;98.17;98103.81;4501265;31;20568;-76
2021/12/07 07:23:09;;;;;;;14.27;7.15;;;;;;;-2.20;97.91;98101.19;4497934;31;20095;-73
2021/12/07 07:25:36;;;;;;;25.35;10.15;;;;;;;-2.16;97.82;98104.47;4486054;31;20089;-73
2021/12/07 07:28:03;;;;;;;25.00;7.87;;;;;;;-2.11;97.58;98109.38;4484314;31;20113;-72
2021/12/07 07:30:31;;;;;;;28.95;10.30;;;;;;;-2.07;97.25;98114.28;4491343;31;20092;-73
2021/12/07 07:32:58;;;;;;;20.35;9.88;;;;;;;-2.00;96.70;98115.66;4501171;31;20096;-74
2021/12/07 07:35:26;;;;;;;15.52;8.32;;;;;;;-1.90;96.32;98110.06;4489505;31;20112;-74
2021/12/07 07:37:53;;;;;;;15.88;7.12;;;;;;;-1.89;96.04;98102.28;4496235;31;20496;-73
2021/12/07 07:40:22;;;;;;;19.37;8.85;;;;;;;-1.85;95.53;98123.47;4489046;31;20096;-74
2021/12/07 07:42:50;;;;;;;28.05;12.00;;;;;;;-1.84;95.29;98135.44;4496134;31;20119;-74
2021/12/07 07:45:23;;;;;;;23.48;8.70;;;;;;;-1.94;95.74;98134.22;4486798;31;20077;-73
2021/12/07 07:47:50;;;;;;;21.70;8.75;;;;;;;-1.71;95.06;98131.34;4487654;31;20127;-73
2021/12/07 07:50:17;;;;;;;26.65;10.30;;;;;;;-1.73;94.77;98119.50;4484200;31;20100;-74
2021/12/07 07:52:45;;;;;;;16.62;8.50;;;;;;;-1.85;95.06;98123.47;4492240;31;20107;-71
2021/12/07 07:55:12;;;;;;;22.55;8.45;;;;;;;-1.91;95.11;98131.50;4491601;31;20123;-71
2021/12/07 07:57:40;;;;;;;29.25;10.80;;;;;;;-2.00;95.67;98120.78;4493523;31;20496;-71
2021/12/07 08:00:12;;;;;;;24.80;10.02;;;;;;;-1.90;95.75;98120.31;4489484;31;20119;-72
2021/12/07 08:02:39;;;;;;;23.70;9.80;;;;;;;-1.84;95.15;98117.47;4490790;31;20156;-71
2021/12/07 08:05:07;;;;;;;21.70;8.88;;;;;;;-1.77;94.75;98123.94;4490845;31;20118;-71
2021/12/07 08:07:35;;;;;;;27.52;9.93;;;;;;;-1.85;94.84;98128.63;4491389;31;20117;-71
2021/12/07 08:10:04;;;;;;;26.80;10.98;;;;;;;-1.80;95.14;98136.94;4491980;31;20165;-71
2021/12/07 08:12:31;;;;;;;17.83;8.15;;;;;;;-1.66;94.22;98139.66;4487744;31;20462;-71
2021/12/07 08:14:59;;;;;;;24.80;8.70;;;;;;;-1.69;94.24;98144.13;4484667;31;20149;-71
2021/12/07 08:17:26;;;;;;;24.37;8.57;;;;;;;-1.71;94.22;98146.75;4484020;32;20105;-73
2021/12/07 08:19:53;;;;;;;27.50;11.27;;;;;;;-1.70;93.92;98143.25;4491870;31;20100;-74
2021/12/07 08:22:20;;;;;;;23.90;7.45;;;;;;;-1.69;94.14;98147.50;4492329;31;20112;-74
2021/12/07 08:24:49;;;;;;;27.42;10.25;;;;;;;-1.62;93.66;98151.44;4490735;31;20084;-75
2021/12/07 08:27:16;;;;;;;25.70;9.93;;;;;;;-1.48;93.19;98144.78;4491546;31;20385;-73
2021/12/07 08:29:59;;;;;;;19.62;7.12;;;;;;;-1.39;92.95;98151.16;4495190;31;20104;-73
2021/12/07 08:32:26;;;;;;;20.48;9.80;;;;;;;-1.28;92.03;98144.59;4495089;31;20100;-72
2021/12/07 08:34:53;;;;;;;23.02;8.60;;;;;;;-1.25;92.06;98139.28;4492621;31;20092;-73
2021/12/07 08:37:20;;;;;;;27.42;10.63;;;;;;;-1.17;91.75;98132.94;4486677;31;20488;-73
2021/12/07 08:39:48;;;;;;;18.80;7.18;;;;;;;-1.17;91.80;98136.31;4500886;31;20127;-73
2021/12/07 08:42:15;;;;;;;25.62;10.55;;;;;;;-1.04;91.36;98139.09;4500235;31;20099;-73
2021/12/07 08:44:42;;;;;;;26.95;10.77;;;;;;;-1.06;91.34;98138.34;4493070;31;20091;-73
2021/12/07 08:47:10;;;;;;;32.63;11.45;;;;;;;-0.86;91.05;98139.88;4484581;32;20108;-74
2021/12/07 08:49:39;;;;;;;21.65;8.10;;;;;;;-0.73;90.12;98137.47;4499512;31;20160;-73
2021/12/07 08:52:06;;;;;;;22.87;9.48;;;;;;;-0.75;90.14;98141.87;4486217;31;20102;-72
2021/12/07 08:59:54;;;;;;;29.27;10.32;;;;;;;-0.64;89.13;98129.25;4495871;31;20096;-73
2021/12/07 09:02:23;;;;;;;19.90;9.05;;;;;;;-0.50;89.30;98127.69;4498095;31;20358;-72
2021/12/07 09:04:53;;;;;;;20.02;7.90;;;;;;;-0.51;88.87;98120.91;4501528;31;20092;-73
2021/12/07 09:07:22;;;;;;;19.98;8.43;;;;;;;-0.61;89.55;98123.12;4497944;31;20132;-74
2021/12/07 09:09:49;;;;;;;17.70;8.50;;;;;;;-0.57;89.73;98120.31;4495399;31;20092;-73
2021/12/07 09:12:17;;;;;;;22.27;10.20;;;;;;;-0.65;89.95;98122.47;4496819;31;20137;-72
2021/12/07 09:14:45;;;;;;;17.80;8.40;;;;;;;-0.69;89.42;98127.88;4492844;31;20119;-73
2021/12/07 09:17:15;;;;;;;20.50;7.97;;;;;;;-0.74;89.71;98110.94;4492306;31;20104;-73
2021/12/07 09:19:46;;;;;;;23.57;9.40;;;;;;;-0.65;90.50;98116.47;4498808;31;20095;-73
2021/12/07 09:22:13;;;;;;;28.95;10.23;;;;;;;-0.57;89.99;98112.59;4494682;31;20127;-74
2021/12/07 09:24:53;;;;;;;15.90;8.65;;;;;;;-0.48;89.71;98133.59;4491086;31;20084;-73
2021/12/07 09:27:20;;;;;;;16.70;6.53;;;;;;;-0.58;89.61;98131.50;4490663;31;20582;-73
2021/12/07 09:29:48;;;;;;;20.75;8.77;;;;;;;-0.60;89.62;98120.47;4497659;31;20092;-73
2021/12/07 09:32:16;;;;;;;20.02;9.13;;;;;;;-0.61;89.38;98116.22;4500617;31;20120;-73
2021/12/07 09:34:44;;;;;;;23.65;8.85;;;;;;;-0.47;88.92;98119.78;4500322;31;20804;-73
2021/12/07 09:37:11;;;;;;;23.95;8.75;;;;;;;-0.33;89.58;98107.03;4494879;31;20099;-73
2021/12/07 09:39:39;;;;;;;19.52;8.63;;;;;;;-0.32;88.89;98098.38;4489090;31;20096;-73
2021/12/07 09:42:06;;;;;;;22.48;9.27;;;;;;;-0.29;88.56;98103.34;4485121;31;20088;-72
2021/12/07 09:44:34;;;;;;;27.58;11.12;;;;;;;-0.27;88.37;98113.53;4483449;32;20425;-73
2021/12/07 09:47:01;;;;;;;20.12;8.60;;;;;;;-0.39;89.65;98109.94;4489576;31;20163;-72
2021/12/07 09:49:28;;;;;;;19.23;8.07;;;;;;;-0.21;89.66;98110.66;4489298;31;20088;-72
2021/12/07 09:51:55;;;;;;;28.23;10.93;;;;;;;-0.12;89.21;98097.25;4483291;31;20115;-72
2021/12/07 09:54:23;;;;;;;23.15;9.68;;;;;;;-0.24;89.05;98091.06;4484184;31;20413;-72
2021/12/07 09:56:50;;;;;;;22.85;9.35;;;;;;;-0.14;89.10;98090.53;4490211;31;20848;-72
2021/12/07 09:59:17;;;;;;;25.62;11.50;;;;;;;-0.03;88.91;98091.59;4485950;31;20100;-73
2021/12/07 10:01:45;;;;;;;22.40;9.93;;;;;;;0.20;88.47;98088.59;4485111;31;20507;-72
2021/12/07 10:04:13;;;;;;;23.27;9.77;;;;;;;0.11;88.71;98084.81;4490958;31;20397;-73
2021/12/07 10:06:40;;;;;;;21.55;9.05;;;;;;;0.10;88.10;98089.13;4485334;31;20100;-73
2021/12/07 10:09:08;;;;;;;25.42;9.85;;;;;;;0.10;88.24;98078.81;4484607;31;20200;-72
2021/12/07 10:11:35;;;;;;;21.20;11.57;;;;;;;0.30;88.72;98100.88;4494095;31;20092;-72
2021/12/07 10:14:03;;;;;;;23.00;8.55;;;;;;;0.19;88.28;98081.81;4498751;31;20110;-72
2021/12/07 10:16:30;;;;;;;28.00;10.77;;;;;;;0.31;87.70;98076.75;4493272;31;20092;-73
2021/12/07 10:18:58;;;;;;;18.02;9.20;;;;;;;0.38;87.87;98066.09;4487372;31;20122;-72
2021/12/07 10:21:29;;;;;;;16.48;8.25;;;;;;;0.31;87.68;98086.25;4498004;31;20104;-73
2021/12/07 10:24:02;;;;;;;21.95;9.18;;;;;;;0.28;87.43;98076.12;4491133;31;20449;-73
2021/12/07 10:26:32;;;;;;;22.33;10.27;;;;;;;0.25;88.49;98071.97;4487055;31;20159;-73
2021/12/07 10:29:01;;;;;;;16.75;7.78;;;;;;;0.37;87.68;98070.41;4492808;31;20481;-73
2021/12/07 10:31:35;;;;;;;26.85;11.07;;;;;;;0.36;87.78;98079.06;4492593;31;20131;-73
2021/12/07 10:34:24;;;;;;;23.55;10.10;;;;;;;0.49;87.57;98058.56;4494894;31;20096;-73
2021/12/07 10:37:16;;;;;;;23.25;8.35;;;;;;;0.47;87.16;98070.69;4494503;31;20107;-73
2021/12/07 10:39:46;;;;;;;21.15;9.55;;;;;;;0.60;85.75;98060.50;4485709;31;20122;-72
2021/12/07 10:42:20;;;;;;;21.20;8.82;;;;;;;0.49;86.45;98069.69;4486822;31;20127;-73
2021/12/07 10:45:08;;;;;;;18.85;9.32;;;;;;;0.40;86.65;98072.00;4493312;31;20615;-73
2021/12/07 10:47:36;;;;;;;18.77;7.47;;;;;;;0.36;87.40;98079.06;4486575;31;20122;-73
2021/12/07 10:50:09;;;;;;;26.12;12.35;;;;;;;0.39;87.24;98067.75;4488353;31;20179;-73
2021/12/07 10:52:42;;;;;;;27.35;11.60;;;;;;;0.31;87.27;98076.75;4482402;31;20453;-73
2021/12/07 10:55:23;;;;;;;26.40;9.87;;;;;;;0.29;88.04;98068.28;4481672;32;20119;-73
2021/12/07 10:57:54;;;;;;;23.75;9.95;;;;;;;0.36;88.25;98066.16;4479991;31;20108;-74
2021/12/07 11:00:39;;;;;;;20.30;8.98;;;;;;;0.35;88.08;98061.97;4481690;31;20120;-75
2021/12/07 11:03:14;;;;;;;20.95;9.35;;;;;;;0.42;88.32;98076.12;4484057;31;20126;-73
2021/12/07 11:05:46;;;;;;;25.80;10.23;;;;;;;0.30;88.35;98066.53;4488190;31;20807;-73
2021/12/07 11:08:18;;;;;;;26.33;10.65;;;;;;;0.08;89.04;98070.38;4488627;31;20156;-75
2021/12/07 11:10:48;;;;;;;31.00;11.65;;;;;;;0.21;88.87;98073.03;4487626;31;20155;-74
2021/12/07 11:13:21;;;;;;;21.45;8.55;;;;;;;0.24;89.39;98064.31;4489352;31;20572;-74
2021/12/07 11:15:53;;;;;;;24.80;10.50;;;;;;;0.16;88.91;98057.03;4488584;31;20112;-75
2021/12/07 11:18:42;;;;;;;22.40;10.55;;;;;;;0.15;89.14;98056.22;4490079;31;20092;-73
2021/12/07 11:21:12;;;;;;;28.25;12.18;;;;;;;0.21;88.20;98038.75;4481812;31;20176;-73
2021/12/07 11:23:43;;;;;;;27.37;10.55;;;;;;;0.01;89.37;98053.59;4497404;31;20134;-73
2021/12/07 11:31:46;;;;;;;22.13;10.95;;;;;;;0.22;88.89;98050.72;4491777;31;20100;-72
2021/12/07 11:34:22;;;;;;;27.10;11.43;;;;;;;0.20;88.44;98034.50;4486984;31;20113;-72
2021/12/07 11:36:57;;;;;;;26.30;10.98;;;;;;;0.30;88.32;98054.50;4487647;31;20096;-71
2021/12/07 11:39:37;;;;;;;31.48;11.68;;;;;;;0.39;87.84;98044.56;4490380;31;20133;-71
2021/12/07 11:42:07;;;;;;;22.10;10.23;;;;;;;0.38;87.85;98043.75;4490762;31;20179;-72
2021/12/07 11:44:59;;;;;;;24.55;11.20;;;;;;;0.44;87.44;98042.53;4486415;31;20592;-71
2021/12/07 11:47:48;;;;;;;16.90;9.60;;;;;;;0.57;86.87;98047.78;4489942;31;20084;-72
2021/12/07 11:50:27;;;;;;;22.92;10.38;;;;;;;0.65;86.47;98051.56;4490362;31;20164;-72
2021/12/07 11:52:58;;;;;;;23.45;11.43;;;;;;;0.67;86.90;98054.06;4491530;31;20096;-72
2021/12/07 11:55:26;;;;;;;25.10;9.82;;;;;;;0.66;86.42;98047.22;4492130;31;20123;-72
2021/12/07 11:57:54;;;;;;;28.52;10.90;;;;;;;0.73;86.63;98045.94;4486908;31;20088;-73
2021/12/07 12:00:25;;;;;;;30.73;10.15;;;;;;;0.69;86.50;98040.13;4489143;31;20127;-74
2021/12/07 12:02:53;;;;;;;24.95;10.45;;;;;;;0.65;87.18;98043.00;4488346;31;20363;-74
2021/12/07 12:05:21;;;;;;;26.70;10.70;;;;;;;0.68;87.17;98043.66;4485730;31;20148;-74
2021/12/07 12:07:49;;;;;;;23.17;10.70;;;;;;;0.65;87.51;98066.19;4488950;31;20076;-75
2021/12/07 12:10:18;;;;;;;32.75;11.68;;;;;;;0.62;87.47;98028.56;4492061;31;20485;-73
2021/12/07 12:13:07;;;;;;;21.77;9.27;;;;;;;0.54;87.72;98041.06;4488449;31;20789;-74
2021/12/07 12:16:12;;;;;;;28.35;10.60;;;;;;;0.52;87.50;98028.28;4484180;31;20088;-73
2021/12/07 12:18:56;;;;;;;22.70;8.52;;;;;;;0.63;87.45;98030.19;4491494;31;20457;-73
2021/12/07 12:21:38;;;;;;;23.12;9.68;;;;;;;0.49;87.84;98019.91;4495076;31;20477;-75
2021/12/07 12:24:18;;;;;;;21.95;8.68;;;;;;;0.46;88.41;98014.94;4488279;31;20115;-73
2021/12/07 12:26:46;;;;;;;25.37;11.38;;;;;;;0.53;88.83;98024.78;4487187;31;20442;-72
2021/12/07 12:29:22;;;;;;;34.72;11.82;;;;;;;0.31;88.68;98027.81;4495112;31;20489;-73
2021/12/07 12:31:52;;;;;;;21.80;8.70;;;;;;;0.47;88.22;98025.16;4499225;31;20172;-72
2021/12/07 12:34:22;;;;;;;22.90;10.65;;;;;;;0.46;88.14;98033.78;4490163;31;20126;-71
2021/12/07 12:37:03;;;;;;;17.77;9.75;;;;;;;0.43;88.11;98028.81;4489896;31;20084;-72
2021/12/07 12:39:53;;;;;;;26.60;10.20;;;;;;;0.43;88.13;98028.00;4490016;31;20088;-72
2021/12/07 12:42:39;;;;;;;27.75;11.12;;;;;;;0.47;87.78;98027.72;4491708;31;20163;-72
2021/12/07 12:45:23;;;;;;;24.10;11.18;;;;;;;0.41;87.94;98048.72;4490833;31;20096;-72
2021/12/07 12:48:12;;;;;;;21.05;10.25;;;;;;;0.53;87.89;98034.28;4497481;31;20089;-73
2021/12/07 12:50:42;;;;;;;26.45;10.93;;;;;;;0.44;87.87;98051.09;4490415;31;20080;-73
2021/12/07 12:53:12;;;;;;;24.63;10.00;;;;;;;0.45;88.45;98039.84;4492801;31;20105;-73
2021/12/07 12:55:39;;;;;;;22.37;8.45;;;;;;;0.50;88.45;98045.59;4491138;31;20108;-73
2021/12/07 12:58:13;;;;;;;24.80;10.85;;;;;;;0.59;88.23;98045.94;4490349;31;20129;-73
2021/12/07 13:00:58;;;;;;;;;;;;;;;0.49;87.82;98051.66;4494162;31;20419;-73
2021/12/07 13:03:40;;;;;;;24.48;10.77;;;;;;;0.52;87.51;98064.34;4486360;31;19980;-72
2021/12/07 13:06:08;;;;;;;26.02;9.70;;;;;;;0.49;87.04;98041.34;4483310;31;20115;-73
2021/12/07 13:08:53;;;;;;;24.70;10.45;;;;;;;0.43;87.17;98070.06;4484653;31;20147;-72
2021/12/07 13:11:41;;;;;;;26.37;10.13;;;;;;;0.47;86.20;98043.19;4488635;31;20112;-73
2021/12/07 13:14:27;;;;;;;20.25;10.73;;;;;;;0.47;86.22;98042.34;4492155;31;20108;-74
2021/12/07 13:17:01;;;;;;;20.33;9.60;;;;;;;0.43;87.67;98066.66;4492099;31;20096;-73
2021/12/07 13:19:28;;;;;;;23.33;9.63;;;;;;;0.42;87.99;98065.00;4489589;31;20100;-74
2021/12/07 13:22:04;;;;;;;21.92;9.50;;;;;;;0.45;87.94;98068.22;4488031;31;20540;-73
2021/12/07 13:24:37;;;;;;;23.15;9.80;;;;;;;0.48;87.51;98065.44;4481438;31;20470;-73